sensor_id;sensor_type;location;lat;lon;timestamp;P1;durP1;ratioP1;P2;durP2;ratioP2
66721;SDS011;53633;49.932;10.884;2023-09-18T00:01:35;7.47;;;4.20;;
66721;SDS011;53633;49.932;10.884;2023-09-18T00:04:02;8.68;;;4.63;;
66721;SDS011;53633;49.932;10.884;2023-09-18T00:06:29;8.73;;;4.40;;
66721;SDS011;53633;49.932;10.884;2023-09-18T00:08:55;9.10;;;4.40;;
66721;SDS011;53633;49.932;10.884;2023-09-18T00:11:22;8.32;;;4.57;;
66721;SDS011;53633;49.932;10.884;2023-09-18T00:13:49;8.35;;;4.50;;
66721;SDS011;53633;49.932;10.884;2023-09-18T00:16:17;7.47;;;4.28;;
66721;SDS011;53633;49.932;10.884;2023-09-18T00:18:44;7.67;;;3.83;;
66721;SDS011;53633;49.932;10.884;2023-09-18T00:21:11;10.35;;;3.80;;
66721;SDS011;53633;49.932;10.884;2023-09-18T00:23:37;9.63;;;4.03;;
66721;SDS011;53633;49.932;10.884;2023-09-18T00:26:04;7.38;;;3.90;;
66721;SDS011;53633;49.932;10.884;2023-09-18T00:28:31;10.18;;;4.85;;
66721;SDS011;53633;49.932;10.884;2023-09-18T00:30:57;8.80;;;4.00;;
66721;SDS011;53633;49.932;10.884;2023-09-18T00:33:25;8.07;;;4.28;;
66721;SDS011;53633;49.932;10.884;2023-09-18T00:35:53;7.90;;;4.43;;
66721;SDS011;53633;49.932;10.884;2023-09-18T00:38:20;7.43;;;3.97;;
66721;SDS011;53633;49.932;10.884;2023-09-18T00:40:47;8.00;;;4.40;;
66721;SDS011;53633;49.932;10.884;2023-09-18T00:43:14;8.83;;;4.40;;
66721;SDS011;53633;49.932;10.884;2023-09-18T00:45:41;8.32;;;4.32;;
66721;SDS011;53633;49.932;10.884;2023-09-18T00:48:11;7.45;;;4.38;;
66721;SDS011;53633;49.932;10.884;2023-09-18T00:50:39;8.02;;;4.70;;
66721;SDS011;53633;49.932;10.884;2023-09-18T00:53:07;7.93;;;4.40;;
66721;SDS011;53633;49.932;10.884;2023-09-18T00:55:34;8.27;;;4.27;;
66721;SDS011;53633;49.932;10.884;2023-09-18T00:58:03;7.93;;;3.88;;
66721;SDS011;53633;49.932;10.884;2023-09-18T01:00:31;8.13;;;4.28;;
66721;SDS011;53633;49.932;10.884;2023-09-18T01:02:58;7.47;;;4.55;;
66721;SDS011;53633;49.932;10.884;2023-09-18T01:05:25;9.23;;;4.53;;
66721;SDS011;53633;49.932;10.884;2023-09-18T01:07:53;7.13;;;4.30;;
66721;SDS011;53633;49.932;10.884;2023-09-18T01:10:20;6.90;;;4.00;;
66721;SDS011;53633;49.932;10.884;2023-09-18T01:12:52;8.98;;;4.60;;
66721;SDS011;53633;49.932;10.884;2023-09-18T01:15:26;9.50;;;4.68;;
66721;SDS011;53633;49.932;10.884;2023-09-18T01:17:56;8.13;;;4.35;;
66721;SDS011;53633;49.932;10.884;2023-09-18T01:20:23;10.67;;;4.37;;
66721;SDS011;53633;49.932;10.884;2023-09-18T01:22:51;8.07;;;4.50;;
66721;SDS011;53633;49.932;10.884;2023-09-18T01:25:18;8.55;;;4.60;;
66721;SDS011;53633;49.932;10.884;2023-09-18T01:27:44;7.95;;;4.07;;
66721;SDS011;53633;49.932;10.884;2023-09-18T01:30:11;9.00;;;4.80;;
66721;SDS011;53633;49.932;10.884;2023-09-18T01:32:38;8.40;;;4.60;;
66721;SDS011;53633;49.932;10.884;2023-09-18T01:35:06;8.40;;;4.57;;
66721;SDS011;53633;49.932;10.884;2023-09-18T01:37:34;7.50;;;4.40;;
66721;SDS011;53633;49.932;10.884;2023-09-18T01:40:05;7.53;;;4.38;;
66721;SDS011;53633;49.932;10.884;2023-09-18T01:42:33;8.90;;;4.95;;
66721;SDS011;53633;49.932;10.884;2023-09-18T01:45:01;8.40;;;4.63;;
66721;SDS011;53633;49.932;10.884;2023-09-18T01:47:28;9.70;;;5.05;;
66721;SDS011;53633;49.932;10.884;2023-09-18T01:49:55;8.30;;;4.38;;
66721;SDS011;53633;49.932;10.884;2023-09-18T01:52:22;9.10;;;4.07;;
66721;SDS011;53633;49.932;10.884;2023-09-18T01:54:49;8.40;;;4.75;;
66721;SDS011;53633;49.932;10.884;2023-09-18T01:57:17;9.60;;;4.57;;
66721;SDS011;53633;49.932;10.884;2023-09-18T01:59:44;8.15;;;4.35;;
66721;SDS011;53633;49.932;10.884;2023-09-18T02:02:10;9.07;;;4.35;;
66721;SDS011;53633;49.932;10.884;2023-09-18T02:04:42;9.80;;;4.40;;
66721;SDS011;53633;49.932;10.884;2023-09-18T02:07:29;7.75;;;4.07;;
66721;SDS011;53633;49.932;10.884;2023-09-18T02:09:56;7.10;;;3.37;;
66721;SDS011;53633;49.932;10.884;2023-09-18T02:12:24;8.38;;;4.07;;
66721;SDS011;53633;49.932;10.884;2023-09-18T02:14:50;7.85;;;4.15;;
66721;SDS011;53633;49.932;10.884;2023-09-18T02:17:17;8.45;;;4.03;;
66721;SDS011;53633;49.932;10.884;2023-09-18T02:19:44;7.20;;;3.97;;
66721;SDS011;53633;49.932;10.884;2023-09-18T02:22:10;8.13;;;4.33;;
66721;SDS011;53633;49.932;10.884;2023-09-18T02:24:37;8.90;;;4.05;;
66721;SDS011;53633;49.932;10.884;2023-09-18T02:27:04;7.50;;;4.03;;
66721;SDS011;53633;49.932;10.884;2023-09-18T02:29:32;8.35;;;4.00;;
66721;SDS011;53633;49.932;10.884;2023-09-18T02:31:59;6.68;;;3.72;;
66721;SDS011;53633;49.932;10.884;2023-09-18T02:34:26;7.53;;;3.80;;
66721;SDS011;53633;49.932;10.884;2023-09-18T02:36:53;8.27;;;4.15;;
66721;SDS011;53633;49.932;10.884;2023-09-18T02:39:19;6.80;;;3.65;;
66721;SDS011;53633;49.932;10.884;2023-09-18T02:41:46;7.88;;;3.55;;
66721;SDS011;53633;49.932;10.884;2023-09-18T02:44:13;8.55;;;4.05;;
66721;SDS011;53633;49.932;10.884;2023-09-18T02:46:41;9.47;;;3.77;;
66721;SDS011;53633;49.932;10.884;2023-09-18T02:49:08;8.25;;;4.13;;
66721;SDS011;53633;49.932;10.884;2023-09-18T02:51:34;7.38;;;4.13;;
66721;SDS011;53633;49.932;10.884;2023-09-18T02:54:01;6.75;;;3.67;;
66721;SDS011;53633;49.932;10.884;2023-09-18T02:56:28;7.35;;;3.70;;
66721;SDS011;53633;49.932;10.884;2023-09-18T02:58:55;7.13;;;3.83;;
66721;SDS011;53633;49.932;10.884;2023-09-18T03:01:21;6.97;;;3.72;;
66721;SDS011;53633;49.932;10.884;2023-09-18T03:03:49;7.97;;;4.07;;
66721;SDS011;53633;49.932;10.884;2023-09-18T03:06:16;7.95;;;3.92;;
66721;SDS011;53633;49.932;10.884;2023-09-18T03:08:43;9.18;;;4.40;;
66721;SDS011;53633;49.932;10.884;2023-09-18T03:11:13;7.07;;;3.60;;
66721;SDS011;53633;49.932;10.884;2023-09-18T03:13:43;7.15;;;3.60;;
66721;SDS011;53633;49.932;10.884;2023-09-18T03:16:10;6.68;;;3.30;;
66721;SDS011;53633;49.932;10.884;2023-09-18T03:18:37;7.38;;;3.75;;
66721;SDS011;53633;49.932;10.884;2023-09-18T03:21:05;8.38;;;4.30;;
66721;SDS011;53633;49.932;10.884;2023-09-18T03:23:31;8.30;;;4.00;;
66721;SDS011;53633;49.932;10.884;2023-09-18T03:25:58;8.43;;;4.18;;
66721;SDS011;53633;49.932;10.884;2023-09-18T03:28:25;7.63;;;4.32;;
66721;SDS011;53633;49.932;10.884;2023-09-18T03:30:52;7.80;;;4.10;;
66721;SDS011;53633;49.932;10.884;2023-09-18T03:33:18;7.93;;;4.28;;
66721;SDS011;53633;49.932;10.884;2023-09-18T03:35:46;7.00;;;3.53;;
66721;SDS011;53633;49.932;10.884;2023-09-18T03:38:15;7.22;;;3.70;;
66721;SDS011;53633;49.932;10.884;2023-09-18T03:40:41;7.90;;;3.80;;
66721;SDS011;53633;49.932;10.884;2023-09-18T03:43:09;6.65;;;3.70;;
66721;SDS011;53633;49.932;10.884;2023-09-18T03:45:36;8.70;;;4.05;;
66721;SDS011;53633;49.932;10.884;2023-09-18T03:48:03;8.07;;;3.50;;
66721;SDS011;53633;49.932;10.884;2023-09-18T03:50:29;6.95;;;3.72;;
66721;SDS011;53633;49.932;10.884;2023-09-18T03:52:56;7.63;;;3.85;;
66721;SDS011;53633;49.932;10.884;2023-09-18T03:55:25;11.00;;;4.28;;
66721;SDS011;53633;49.932;10.884;2023-09-18T03:57:52;11.98;;;3.92;;
66721;SDS011;53633;49.932;10.884;2023-09-18T04:00:19;12.17;;;4.40;;
66721;SDS011;53633;49.932;10.884;2023-09-18T04:02:47;8.07;;;4.25;;
66721;SDS011;53633;49.932;10.884;2023-09-18T04:05:14;7.60;;;3.95;;
66721;SDS011;53633;49.932;10.884;2023-09-18T04:07:40;9.55;;;3.97;;
66721;SDS011;53633;49.932;10.884;2023-09-18T04:10:07;7.90;;;4.03;;
66721;SDS011;53633;49.932;10.884;2023-09-18T04:12:35;15.17;;;4.70;;
66721;SDS011;53633;49.932;10.884;2023-09-18T04:15:02;10.23;;;4.07;;
66721;SDS011;53633;49.932;10.884;2023-09-18T04:17:29;11.65;;;4.60;;
66721;SDS011;53633;49.932;10.884;2023-09-18T04:19:56;11.15;;;4.45;;
66721;SDS011;53633;49.932;10.884;2023-09-18T04:22:23;13.98;;;4.93;;
66721;SDS011;53633;49.932;10.884;2023-09-18T04:24:50;12.13;;;4.97;;
66721;SDS011;53633;49.932;10.884;2023-09-18T04:27:16;11.13;;;4.70;;
66721;SDS011;53633;49.932;10.884;2023-09-18T04:29:44;9.68;;;4.68;;
66721;SDS011;53633;49.932;10.884;2023-09-18T04:32:11;8.25;;;4.50;;
66721;SDS011;53633;49.932;10.884;2023-09-18T04:34:38;11.10;;;5.28;;
66721;SDS011;53633;49.932;10.884;2023-09-18T04:37:04;9.77;;;4.70;;
66721;SDS011;53633;49.932;10.884;2023-09-18T04:39:31;8.77;;;4.55;;
66721;SDS011;53633;49.932;10.884;2023-09-18T04:41:58;8.52;;;5.00;;
66721;SDS011;53633;49.932;10.884;2023-09-18T04:44:24;9.35;;;5.00;;
66721;SDS011;53633;49.932;10.884;2023-09-18T04:46:52;12.00;;;5.30;;
66721;SDS011;53633;49.932;10.884;2023-09-18T04:49:19;8.47;;;4.57;;
66721;SDS011;53633;49.932;10.884;2023-09-18T04:51:46;8.15;;;4.63;;
66721;SDS011;53633;49.932;10.884;2023-09-18T04:54:12;8.43;;;4.43;;
66721;SDS011;53633;49.932;10.884;2023-09-18T04:56:39;9.63;;;4.50;;
66721;SDS011;53633;49.932;10.884;2023-09-18T04:59:07;8.45;;;4.75;;
66721;SDS011;53633;49.932;10.884;2023-09-18T05:01:33;8.37;;;4.33;;
66721;SDS011;53633;49.932;10.884;2023-09-18T05:04:01;10.52;;;4.38;;
66721;SDS011;53633;49.932;10.884;2023-09-18T05:06:28;9.02;;;4.50;;
66721;SDS011;53633;49.932;10.884;2023-09-18T05:08:55;7.93;;;4.30;;
66721;SDS011;53633;49.932;10.884;2023-09-18T05:11:22;8.05;;;4.53;;
66721;SDS011;53633;49.932;10.884;2023-09-18T05:13:49;9.47;;;4.40;;
66721;SDS011;53633;49.932;10.884;2023-09-18T05:16:16;11.85;;;4.47;;
66721;SDS011;53633;49.932;10.884;2023-09-18T05:18:43;8.82;;;4.15;;
66721;SDS011;53633;49.932;10.884;2023-09-18T05:21:11;9.02;;;4.68;;
66721;SDS011;53633;49.932;10.884;2023-09-18T05:23:37;9.70;;;4.70;;
66721;SDS011;53633;49.932;10.884;2023-09-18T05:26:04;8.90;;;4.37;;
66721;SDS011;53633;49.932;10.884;2023-09-18T05:28:31;11.30;;;5.45;;
66721;SDS011;53633;49.932;10.884;2023-09-18T05:30:58;11.07;;;4.45;;
66721;SDS011;53633;49.932;10.884;2023-09-18T05:33:24;9.40;;;4.78;;
66721;SDS011;53633;49.932;10.884;2023-09-18T05:35:51;8.95;;;4.65;;
66721;SDS011;53633;49.932;10.884;2023-09-18T05:38:19;9.80;;;4.60;;
66721;SDS011;53633;49.932;10.884;2023-09-18T05:40:46;10.32;;;4.93;;
66721;SDS011;53633;49.932;10.884;2023-09-18T05:43:12;9.57;;;4.80;;
66721;SDS011;53633;49.932;10.884;2023-09-18T05:45:40;9.20;;;4.60;;
66721;SDS011;53633;49.932;10.884;2023-09-18T05:48:06;8.63;;;4.30;;
66721;SDS011;53633;49.932;10.884;2023-09-18T05:50:33;7.33;;;4.00;;
66721;SDS011;53633;49.932;10.884;2023-09-18T05:53:01;8.10;;;4.60;;
66721;SDS011;53633;49.932;10.884;2023-09-18T05:55:29;8.38;;;4.50;;
66721;SDS011;53633;49.932;10.884;2023-09-18T05:57:56;9.35;;;4.22;;
66721;SDS011;53633;49.932;10.884;2023-09-18T06:00:23;9.10;;;4.72;;
66721;SDS011;53633;49.932;10.884;2023-09-18T06:02:50;8.60;;;4.43;;
66721;SDS011;53633;49.932;10.884;2023-09-18T06:05:17;9.23;;;4.90;;
66721;SDS011;53633;49.932;10.884;2023-09-18T06:07:44;10.20;;;5.10;;
66721;SDS011;53633;49.932;10.884;2023-09-18T06:10:10;10.07;;;4.90;;
66721;SDS011;53633;49.932;10.884;2023-09-18T06:12:39;8.48;;;4.10;;
66721;SDS011;53633;49.932;10.884;2023-09-18T06:15:06;13.77;;;5.60;;
66721;SDS011;53633;49.932;10.884;2023-09-18T06:17:33;11.70;;;4.90;;
66721;SDS011;53633;49.932;10.884;2023-09-18T06:20:00;10.07;;;5.00;;
66721;SDS011;53633;49.932;10.884;2023-09-18T06:22:26;10.93;;;5.18;;
66721;SDS011;53633;49.932;10.884;2023-09-18T06:24:53;9.80;;;4.82;;
66721;SDS011;53633;49.932;10.884;2023-09-18T06:27:20;9.17;;;5.00;;
66721;SDS011;53633;49.932;10.884;2023-09-18T06:29:48;9.13;;;5.20;;
66721;SDS011;53633;49.932;10.884;2023-09-18T06:32:14;10.55;;;4.80;;
66721;SDS011;53633;49.932;10.884;2023-09-18T06:34:41;9.15;;;4.53;;
66721;SDS011;53633;49.932;10.884;2023-09-18T06:37:08;9.63;;;5.15;;
66721;SDS011;53633;49.932;10.884;2023-09-18T06:39:34;11.77;;;4.67;;
66721;SDS011;53633;49.932;10.884;2023-09-18T06:42:01;10.07;;;5.35;;
66721;SDS011;53633;49.932;10.884;2023-09-18T06:44:28;11.25;;;5.20;;
66721;SDS011;53633;49.932;10.884;2023-09-18T06:46:56;10.65;;;5.22;;
66721;SDS011;53633;49.932;10.884;2023-09-18T06:49:23;11.75;;;5.63;;
66721;SDS011;53633;49.932;10.884;2023-09-18T06:51:50;13.57;;;5.43;;
66721;SDS011;53633;49.932;10.884;2023-09-18T06:54:17;11.32;;;5.60;;
66721;SDS011;53633;49.932;10.884;2023-09-18T06:56:43;11.25;;;5.50;;
66721;SDS011;53633;49.932;10.884;2023-09-18T06:59:10;9.85;;;5.32;;
66721;SDS011;53633;49.932;10.884;2023-09-18T07:01:37;9.50;;;5.07;;
66721;SDS011;53633;49.932;10.884;2023-09-18T07:04:05;11.33;;;5.37;;
66721;SDS011;53633;49.932;10.884;2023-09-18T07:06:32;11.38;;;4.70;;
66721;SDS011;53633;49.932;10.884;2023-09-18T07:08:59;8.50;;;4.97;;
66721;SDS011;53633;49.932;10.884;2023-09-18T07:11:26;8.93;;;4.75;;
66721;SDS011;53633;49.932;10.884;2023-09-18T07:13:52;9.85;;;4.72;;
66721;SDS011;53633;49.932;10.884;2023-09-18T07:16:19;8.07;;;4.30;;
66721;SDS011;53633;49.932;10.884;2023-09-18T07:18:46;8.27;;;4.72;;
66721;SDS011;53633;49.932;10.884;2023-09-18T07:21:14;9.95;;;4.68;;
66721;SDS011;53633;49.932;10.884;2023-09-18T07:23:41;11.45;;;4.63;;
66721;SDS011;53633;49.932;10.884;2023-09-18T07:26:07;8.45;;;4.68;;
66721;SDS011;53633;49.932;10.884;2023-09-18T07:28:34;8.50;;;4.43;;
66721;SDS011;53633;49.932;10.884;2023-09-18T07:31:05;7.95;;;4.18;;
66721;SDS011;53633;49.932;10.884;2023-09-18T07:33:32;9.20;;;4.88;;
66721;SDS011;53633;49.932;10.884;2023-09-18T07:35:58;8.70;;;4.82;;
66721;SDS011;53633;49.932;10.884;2023-09-18T07:38:27;8.93;;;4.90;;
66721;SDS011;53633;49.932;10.884;2023-09-18T07:40:53;9.27;;;4.83;;
66721;SDS011;53633;49.932;10.884;2023-09-18T07:43:23;10.15;;;4.80;;
66721;SDS011;53633;49.932;10.884;2023-09-18T07:45:50;9.15;;;4.97;;
66721;SDS011;53633;49.932;10.884;2023-09-18T07:48:19;9.57;;;4.30;;
66721;SDS011;53633;49.932;10.884;2023-09-18T07:50:45;7.07;;;4.55;;
66721;SDS011;53633;49.932;10.884;2023-09-18T07:53:12;14.53;;;5.20;;
66721;SDS011;53633;49.932;10.884;2023-09-18T07:55:40;11.65;;;4.53;;
66721;SDS011;53633;49.932;10.884;2023-09-18T07:58:07;12.30;;;5.00;;
66721;SDS011;53633;49.932;10.884;2023-09-18T08:00:33;8.70;;;5.03;;
66721;SDS011;53633;49.932;10.884;2023-09-18T08:03:00;9.63;;;4.97;;
66721;SDS011;53633;49.932;10.884;2023-09-18T08:05:27;9.60;;;5.03;;
66721;SDS011;53633;49.932;10.884;2023-09-18T08:07:54;8.88;;;4.65;;
66721;SDS011;53633;49.932;10.884;2023-09-18T08:10:21;8.68;;;4.88;;
66721;SDS011;53633;49.932;10.884;2023-09-18T08:12:49;11.32;;;4.93;;
66721;SDS011;53633;49.932;10.884;2023-09-18T08:15:16;9.18;;;4.88;;
66721;SDS011;53633;49.932;10.884;2023-09-18T08:17:42;8.37;;;4.70;;
66721;SDS011;53633;49.932;10.884;2023-09-18T08:20:09;7.93;;;4.53;;
66721;SDS011;53633;49.932;10.884;2023-09-18T08:22:36;10.88;;;4.75;;
66721;SDS011;53633;49.932;10.884;2023-09-18T08:25:03;11.80;;;4.75;;
66721;SDS011;53633;49.932;10.884;2023-09-18T08:27:31;12.70;;;5.07;;
66721;SDS011;53633;49.932;10.884;2023-09-18T08:29:59;11.17;;;4.47;;
66721;SDS011;53633;49.932;10.884;2023-09-18T08:32:26;11.25;;;5.00;;
66721;SDS011;53633;49.932;10.884;2023-09-18T08:34:53;8.95;;;4.70;;
66721;SDS011;53633;49.932;10.884;2023-09-18T08:37:21;8.70;;;4.78;;
66721;SDS011;53633;49.932;10.884;2023-09-18T08:39:47;8.68;;;5.32;;
66721;SDS011;53633;49.932;10.884;2023-09-18T08:42:14;7.10;;;4.40;;
66721;SDS011;53633;49.932;10.884;2023-09-18T08:44:42;9.23;;;4.47;;
66721;SDS011;53633;49.932;10.884;2023-09-18T08:47:12;9.18;;;4.68;;
66721;SDS011;53633;49.932;10.884;2023-09-18T08:49:41;8.63;;;4.97;;
66721;SDS011;53633;49.932;10.884;2023-09-18T08:52:10;10.60;;;4.75;;
66721;SDS011;53633;49.932;10.884;2023-09-18T08:54:39;6.73;;;4.40;;
66721;SDS011;53633;49.932;10.884;2023-09-18T08:57:05;9.35;;;4.80;;
66721;SDS011;53633;49.932;10.884;2023-09-18T08:59:33;10.90;;;4.93;;
66721;SDS011;53633;49.932;10.884;2023-09-18T09:02:01;9.25;;;4.75;;
66721;SDS011;53633;49.932;10.884;2023-09-18T09:04:29;8.85;;;4.80;;
66721;SDS011;53633;49.932;10.884;2023-09-18T09:06:56;8.80;;;4.50;;
66721;SDS011;53633;49.932;10.884;2023-09-18T09:09:23;8.82;;;4.93;;
66721;SDS011;53633;49.932;10.884;2023-09-18T09:11:50;9.25;;;4.90;;
66721;SDS011;53633;49.932;10.884;2023-09-18T09:14:17;7.50;;;4.30;;
66721;SDS011;53633;49.932;10.884;2023-09-18T09:16:46;7.80;;;4.68;;
66721;SDS011;53633;49.932;10.884;2023-09-18T09:19:13;8.13;;;4.27;;
66721;SDS011;53633;49.932;10.884;2023-09-18T09:21:43;9.45;;;4.43;;
66721;SDS011;53633;49.932;10.884;2023-09-18T09:24:10;10.20;;;4.47;;
66721;SDS011;53633;49.932;10.884;2023-09-18T09:26:37;12.95;;;4.05;;
66721;SDS011;53633;49.932;10.884;2023-09-18T09:29:14;7.35;;;4.20;;
66721;SDS011;53633;49.932;10.884;2023-09-18T09:31:42;8.90;;;3.73;;
66721;SDS011;53633;49.932;10.884;2023-09-18T09:34:09;8.10;;;3.67;;
66721;SDS011;53633;49.932;10.884;2023-09-18T09:36:36;8.25;;;3.50;;
66721;SDS011;53633;49.932;10.884;2023-09-18T09:39:12;6.80;;;3.00;;
66721;SDS011;53633;49.932;10.884;2023-09-18T09:41:38;8.40;;;3.17;;
66721;SDS011;53633;49.932;10.884;2023-09-18T09:44:12;7.23;;;2.87;;
66721;SDS011;53633;49.932;10.884;2023-09-18T09:46:44;6.55;;;3.05;;
66721;SDS011;53633;49.932;10.884;2023-09-18T09:49:12;8.65;;;2.88;;
66721;SDS011;53633;49.932;10.884;2023-09-18T09:51:39;8.70;;;2.47;;
66721;SDS011;53633;49.932;10.884;2023-09-18T09:54:05;9.00;;;3.10;;
66721;SDS011;53633;49.932;10.884;2023-09-18T09:56:43;6.07;;;2.07;;
66721;SDS011;53633;49.932;10.884;2023-09-18T09:59:11;6.05;;;2.28;;
66721;SDS011;53633;49.932;10.884;2023-09-18T10:01:39;8.05;;;2.70;;
66721;SDS011;53633;49.932;10.884;2023-09-18T10:04:07;8.32;;;2.08;;
66721;SDS011;53633;49.932;10.884;2023-09-18T10:06:36;6.88;;;2.30;;
66721;SDS011;53633;49.932;10.884;2023-09-18T10:09:04;7.13;;;2.00;;
66721;SDS011;53633;49.932;10.884;2023-09-18T10:11:33;7.10;;;2.20;;
66721;SDS011;53633;49.932;10.884;2023-09-18T10:14:06;7.43;;;2.08;;
66721;SDS011;53633;49.932;10.884;2023-09-18T10:16:36;8.18;;;2.22;;
66721;SDS011;53633;49.932;10.884;2023-09-18T10:19:06;5.75;;;2.03;;
66721;SDS011;53633;49.932;10.884;2023-09-18T10:21:38;7.87;;;1.80;;
66721;SDS011;53633;49.932;10.884;2023-09-18T10:24:13;5.65;;;1.80;;
66721;SDS011;53633;49.932;10.884;2023-09-18T10:26:45;6.78;;;1.92;;
66721;SDS011;53633;49.932;10.884;2023-09-18T10:29:18;5.60;;;2.13;;
66721;SDS011;53633;49.932;10.884;2023-09-18T10:31:46;7.85;;;1.95;;
66721;SDS011;53633;49.932;10.884;2023-09-18T10:34:14;8.00;;;1.70;;
66721;SDS011;53633;49.932;10.884;2023-09-18T10:36:42;5.60;;;1.35;;
66721;SDS011;53633;49.932;10.884;2023-09-18T10:39:10;7.25;;;1.48;;
66721;SDS011;53633;49.932;10.884;2023-09-18T10:41:37;6.47;;;1.25;;
66721;SDS011;53633;49.932;10.884;2023-09-18T10:44:04;7.63;;;1.52;;
66721;SDS011;53633;49.932;10.884;2023-09-18T10:46:33;8.90;;;1.13;;
66721;SDS011;53633;49.932;10.884;2023-09-18T10:49:00;6.32;;;1.38;;
66721;SDS011;53633;49.932;10.884;2023-09-18T10:51:27;7.00;;;1.15;;
66721;SDS011;53633;49.932;10.884;2023-09-18T10:53:56;6.55;;;1.40;;
66721;SDS011;53633;49.932;10.884;2023-09-18T10:56:23;4.28;;;1.08;;
66721;SDS011;53633;49.932;10.884;2023-09-18T10:58:55;6.20;;;1.27;;
66721;SDS011;53633;49.932;10.884;2023-09-18T11:01:23;4.75;;;1.60;;
66721;SDS011;53633;49.932;10.884;2023-09-18T11:03:52;4.95;;;0.98;;
66721;SDS011;53633;49.932;10.884;2023-09-18T11:06:18;6.22;;;1.30;;
66721;SDS011;53633;49.932;10.884;2023-09-18T11:08:45;5.50;;;1.20;;
66721;SDS011;53633;49.932;10.884;2023-09-18T11:11:13;5.20;;;0.87;;
66721;SDS011;53633;49.932;10.884;2023-09-18T11:13:40;2.85;;;0.82;;
66721;SDS011;53633;49.932;10.884;2023-09-18T11:16:18;7.97;;;1.23;;
66721;SDS011;53633;49.932;10.884;2023-09-18T11:19:07;6.80;;;0.80;;
66721;SDS011;53633;49.932;10.884;2023-09-18T11:21:35;6.18;;;1.05;;
66721;SDS011;53633;49.932;10.884;2023-09-18T11:24:03;6.03;;;0.90;;
66721;SDS011;53633;49.932;10.884;2023-09-18T11:26:31;7.05;;;0.98;;
66721;SDS011;53633;49.932;10.884;2023-09-18T11:28:59;6.03;;;1.42;;
66721;SDS011;53633;49.932;10.884;2023-09-18T11:31:41;7.10;;;1.08;;
66721;SDS011;53633;49.932;10.884;2023-09-18T11:34:14;4.90;;;1.20;;
66721;SDS011;53633;49.932;10.884;2023-09-18T11:36:41;5.07;;;0.97;;
66721;SDS011;53633;49.932;10.884;2023-09-18T11:39:08;9.55;;;1.17;;
66721;SDS011;53633;49.932;10.884;2023-09-18T11:41:36;6.05;;;1.30;;
66721;SDS011;53633;49.932;10.884;2023-09-18T11:47:00;5.93;;;1.40;;
66721;SDS011;53633;49.932;10.884;2023-09-18T11:49:28;5.73;;;1.20;;
66721;SDS011;53633;49.932;10.884;2023-09-18T11:51:55;7.88;;;1.10;;
66721;SDS011;53633;49.932;10.884;2023-09-18T11:54:24;6.18;;;1.30;;
66721;SDS011;53633;49.932;10.884;2023-09-18T11:56:53;6.45;;;1.40;;
66721;SDS011;53633;49.932;10.884;2023-09-18T11:59:32;4.40;;;1.10;;
66721;SDS011;53633;49.932;10.884;2023-09-18T12:02:00;5.20;;;1.13;;
66721;SDS011;53633;49.932;10.884;2023-09-18T12:04:31;6.68;;;1.48;;
66721;SDS011;53633;49.932;10.884;2023-09-18T12:06:58;6.15;;;1.13;;
66721;SDS011;53633;49.932;10.884;2023-09-18T12:09:26;7.93;;;1.90;;
66721;SDS011;53633;49.932;10.884;2023-09-18T12:11:53;5.13;;;1.10;;
66721;SDS011;53633;49.932;10.884;2023-09-18T12:14:19;8.00;;;1.70;;
66721;SDS011;53633;49.932;10.884;2023-09-18T12:16:46;8.05;;;1.30;;
66721;SDS011;53633;49.932;10.884;2023-09-18T12:19:15;9.15;;;1.67;;
66721;SDS011;53633;49.932;10.884;2023-09-18T12:21:45;8.35;;;1.67;;
66721;SDS011;53633;49.932;10.884;2023-09-18T12:24:13;6.97;;;1.42;;
66721;SDS011;53633;49.932;10.884;2023-09-18T12:26:39;9.83;;;1.73;;
66721;SDS011;53633;49.932;10.884;2023-09-18T12:29:06;8.93;;;1.58;;
66721;SDS011;53633;49.932;10.884;2023-09-18T12:31:33;7.38;;;1.52;;
66721;SDS011;53633;49.932;10.884;2023-09-18T12:34:00;6.68;;;1.50;;
66721;SDS011;53633;49.932;10.884;2023-09-18T12:36:26;7.07;;;1.35;;
66721;SDS011;53633;49.932;10.884;2023-09-18T12:38:57;7.03;;;1.30;;
66721;SDS011;53633;49.932;10.884;2023-09-18T12:41:26;6.30;;;1.38;;
66721;SDS011;53633;49.932;10.884;2023-09-18T12:43:58;5.72;;;1.35;;
66721;SDS011;53633;49.932;10.884;2023-09-18T12:46:25;6.63;;;1.27;;
66721;SDS011;53633;49.932;10.884;2023-09-18T12:48:52;4.15;;;1.20;;
66721;SDS011;53633;49.932;10.884;2023-09-18T12:51:27;7.93;;;1.33;;
66721;SDS011;53633;49.932;10.884;2023-09-18T12:54:00;5.78;;;1.35;;
66721;SDS011;53633;49.932;10.884;2023-09-18T12:56:27;7.95;;;1.63;;
66721;SDS011;53633;49.932;10.884;2023-09-18T12:58:56;7.60;;;1.38;;
66721;SDS011;53633;49.932;10.884;2023-09-18T13:01:37;9.45;;;1.75;;
66721;SDS011;53633;49.932;10.884;2023-09-18T13:04:04;6.93;;;1.00;;
66721;SDS011;53633;49.932;10.884;2023-09-18T13:06:31;5.88;;;0.90;;
66721;SDS011;53633;49.932;10.884;2023-09-18T13:11:55;4.55;;;0.88;;
66721;SDS011;53633;49.932;10.884;2023-09-18T13:14:23;4.70;;;1.00;;
66721;SDS011;53633;49.932;10.884;2023-09-18T13:16:50;5.30;;;1.27;;
66721;SDS011;53633;49.932;10.884;2023-09-18T13:19:17;9.13;;;1.23;;
66721;SDS011;53633;49.932;10.884;2023-09-18T13:21:47;4.57;;;1.00;;
66721;SDS011;53633;49.932;10.884;2023-09-18T13:24:25;5.60;;;1.40;;
66721;SDS011;53633;49.932;10.884;2023-09-18T13:26:53;6.28;;;1.27;;
66721;SDS011;53633;49.932;10.884;2023-09-18T13:29:20;6.43;;;1.10;;
66721;SDS011;53633;49.932;10.884;2023-09-18T13:31:47;5.13;;;1.20;;
66721;SDS011;53633;49.932;10.884;2023-09-18T13:34:14;5.78;;;1.20;;
66721;SDS011;53633;49.932;10.884;2023-09-18T13:36:41;5.60;;;1.17;;
66721;SDS011;53633;49.932;10.884;2023-09-18T13:39:08;6.15;;;1.10;;
66721;SDS011;53633;49.932;10.884;2023-09-18T13:41:36;5.13;;;1.00;;
66721;SDS011;53633;49.932;10.884;2023-09-18T13:44:03;7.05;;;1.33;;
66721;SDS011;53633;49.932;10.884;2023-09-18T13:46:33;6.00;;;1.10;;
66721;SDS011;53633;49.932;10.884;2023-09-18T13:49:00;6.47;;;1.02;;
66721;SDS011;53633;49.932;10.884;2023-09-18T13:51:27;4.70;;;1.40;;
66721;SDS011;53633;49.932;10.884;2023-09-18T13:53:53;5.73;;;1.07;;
66721;SDS011;53633;49.932;10.884;2023-09-18T13:56:20;5.95;;;1.00;;
66721;SDS011;53633;49.932;10.884;2023-09-18T13:58:48;8.43;;;1.63;;
66721;SDS011;53633;49.932;10.884;2023-09-18T14:01:15;5.68;;;1.15;;
66721;SDS011;53633;49.932;10.884;2023-09-18T14:03:42;5.40;;;1.10;;
66721;SDS011;53633;49.932;10.884;2023-09-18T14:06:09;5.63;;;1.30;;
66721;SDS011;53633;49.932;10.884;2023-09-18T14:08:36;5.60;;;1.00;;
66721;SDS011;53633;49.932;10.884;2023-09-18T14:11:02;4.95;;;1.20;;
66721;SDS011;53633;49.932;10.884;2023-09-18T14:13:29;4.82;;;1.13;;
66721;SDS011;53633;49.932;10.884;2023-09-18T14:15:57;3.08;;;1.02;;
66721;SDS011;53633;49.932;10.884;2023-09-18T14:18:24;6.33;;;0.90;;
66721;SDS011;53633;49.932;10.884;2023-09-18T14:20:51;5.53;;;0.80;;
66721;SDS011;53633;49.932;10.884;2023-09-18T14:23:17;5.32;;;0.88;;
66721;SDS011;53633;49.932;10.884;2023-09-18T14:25:44;4.05;;;0.70;;
66721;SDS011;53633;49.932;10.884;2023-09-18T14:28:11;5.97;;;1.42;;
66721;SDS011;53633;49.932;10.884;2023-09-18T14:30:38;4.23;;;0.87;;
66721;SDS011;53633;49.932;10.884;2023-09-18T14:33:06;4.07;;;0.90;;
66721;SDS011;53633;49.932;10.884;2023-09-18T14:35:32;5.25;;;0.82;;
66721;SDS011;53633;49.932;10.884;2023-09-18T14:37:59;5.28;;;0.88;;
66721;SDS011;53633;49.932;10.884;2023-09-18T14:40:26;4.57;;;1.05;;
66721;SDS011;53633;49.932;10.884;2023-09-18T14:42:52;5.60;;;0.80;;